createdAt,value
2023-01-17T00:00:12.267Z,98921.72
2023-01-17T00:02:41.052Z,98920.56
2023-01-17T00:05:29.040Z,98923.88
2023-01-17T00:08:15.977Z,98930.66
2023-01-17T00:10:45.550Z,98930.53
2023-01-17T00:13:14.448Z,98931.34
2023-01-17T00:15:43.781Z,98925.47
2023-01-17T00:18:12.497Z,98923.06
2023-01-17T00:20:59.639Z,98921.16
2023-01-17T00:23:46.769Z,98925.31
2023-01-17T00:26:20.907Z,98930.53
2023-01-17T00:28:50.244Z,98934.59
2023-01-17T00:31:18.932Z,98924.28
2023-01-17T00:33:47.613Z,98927.56
2023-01-17T00:36:16.215Z,98926.72
2023-01-17T00:38:44.935Z,98924.31
2023-01-17T00:41:15.814Z,98930.34
2023-01-17T00:44:03.232Z,98923.28
2023-01-17T00:46:50.416Z,98924.97
2023-01-17T00:49:38.161Z,98932.59
2023-01-17T00:52:25.706Z,98936.97
2023-01-17T00:55:13.315Z,98932.72
2023-01-17T00:58:00.594Z,98931.88
2023-01-17T01:00:49.713Z,98944.41
2023-01-17T01:03:38.799Z,98953.75
2023-01-17T01:06:29.460Z,98948.47
2023-01-17T01:09:18.791Z,98951.06
2023-01-17T01:12:06.739Z,98956.03
2023-01-17T01:14:55.902Z,98957.78
2023-01-17T01:17:43.547Z,98960.34
2023-01-17T01:20:34.447Z,98969.66
2023-01-17T01:23:26.338Z,98965.56
2023-01-17T01:26:14.104Z,98967.13
2023-01-17T01:29:02.736Z,98964.28
2023-01-17T01:31:50.564Z,98964.38
2023-01-17T01:34:20.613Z,98975.34
2023-01-17T01:36:50.365Z,98973.75
2023-01-17T01:39:19.997Z,98972.81
2023-01-17T01:41:49.423Z,98978.59
2023-01-17T01:44:44.709Z,98980.44
2023-01-17T01:47:28.807Z,98976.81
2023-01-17T01:50:01.892Z,98982.75
2023-01-17T01:52:35.260Z,98983.47
2023-01-17T01:55:12.228Z,98986.16
2023-01-17T01:57:48.538Z,98981.16
2023-01-17T02:00:26.201Z,98985.34
2023-01-17T02:03:00.110Z,98987.78
2023-01-17T02:05:31.127Z,98987.75
2023-01-17T02:08:06.151Z,98991.44
2023-01-17T02:10:41.038Z,98995.63
2023-01-17T02:13:12.034Z,99000.50
2023-01-17T02:16:05.759Z,98996.69
2023-01-17T02:18:43.008Z,99000.63
2023-01-17T02:21:19.038Z,99011.81
2023-01-17T02:24:03.615Z,99020.34
2023-01-17T02:27:01.713Z,99012.09
2023-01-17T02:29:59.225Z,99022.44
2023-01-17T02:32:46.893Z,99028.94
2023-01-17T02:35:33.310Z,99027.66
2023-01-17T02:38:40.441Z,99035.44
2023-01-17T02:41:22.577Z,99033.69
2023-01-17T02:43:54.552Z,99032.69
2023-01-17T02:46:24.462Z,99036.97
2023-01-17T02:48:55.024Z,99042.25
2023-01-17T02:51:56.047Z,99042.72
2023-01-17T02:54:25.989Z,99044.81
2023-01-17T02:57:19.316Z,99057.97
2023-01-17T03:00:00.914Z,99052.25
2023-01-17T03:02:53.745Z,99066.88
2023-01-17T03:05:38.663Z,99068.13
2023-01-17T03:08:08.988Z,99070.53
2023-01-17T03:10:38.955Z,99071.66
2023-01-17T03:13:08.329Z,99071.66
2023-01-17T03:15:41.151Z,99071.00
2023-01-17T03:18:17.686Z,99073.88
2023-01-17T03:20:47.743Z,99074.06
2023-01-17T03:23:17.603Z,99077.78
2023-01-17T03:25:47.060Z,99083.00
2023-01-17T03:28:16.698Z,99084.91
2023-01-17T03:30:45.839Z,99088.34
2023-01-17T03:33:18.049Z,99080.97
2023-01-17T03:35:47.682Z,99087.06
2023-01-17T03:38:18.037Z,99089.88
2023-01-17T03:40:47.354Z,99096.03
2023-01-17T03:43:16.139Z,99095.31
2023-01-17T03:45:45.273Z,99094.69
2023-01-17T03:48:14.328Z,99112.00
2023-01-17T03:50:43.856Z,99098.47
2023-01-17T03:53:12.624Z,99107.16
2023-01-17T03:55:41.689Z,99111.41
2023-01-17T03:58:10.879Z,99115.91
2023-01-17T04:00:39.670Z,99118.63
2023-01-17T04:03:08.787Z,99124.91
2023-01-17T04:05:37.527Z,99132.63
2023-01-17T04:08:08.273Z,99131.03
2023-01-17T04:10:37.125Z,99135.41
2023-01-17T04:13:05.945Z,99137.31
2023-01-17T04:15:35.776Z,99145.94
2023-01-17T04:18:06.512Z,99151.28
2023-01-17T04:20:41.038Z,99157.44
2023-01-17T04:23:10.353Z,99162.47
2023-01-17T04:25:39.135Z,99164.41
2023-01-17T04:28:08.656Z,99164.56
2023-01-17T04:30:37.542Z,99169.69
2023-01-17T04:33:06.823Z,99166.41
2023-01-17T04:35:35.817Z,99176.72
2023-01-17T04:38:05.431Z,99182.06
2023-01-17T04:40:34.285Z,99187.22
2023-01-17T04:43:03.364Z,99183.03
2023-01-17T04:45:32.366Z,99194.19
2023-01-17T04:48:06.426Z,99195.22
2023-01-17T04:50:35.889Z,99195.19
2023-01-17T04:53:04.480Z,99202.94
2023-01-17T04:55:33.369Z,99203.81
2023-01-17T04:58:02.231Z,99202.97
2023-01-17T05:00:31.568Z,99203.06
2023-01-17T05:03:00.541Z,99203.13
2023-01-17T05:05:29.640Z,99198.84
2023-01-17T05:08:00.349Z,99201.53
2023-01-17T05:10:29.757Z,99196.41
2023-01-17T05:13:00.653Z,99205.03
2023-01-17T05:15:30.064Z,99204.22
2023-01-17T05:17:59.517Z,99204.25
2023-01-17T05:20:28.691Z,99200.00
2023-01-17T05:22:59.202Z,99194.09
2023-01-17T05:25:30.678Z,99195.84
2023-01-17T05:28:01.547Z,99193.31
2023-01-17T05:30:32.542Z,99195.94
2023-01-17T05:33:01.877Z,99192.50
2023-01-17T05:35:33.679Z,99199.38
2023-01-17T05:38:03.306Z,99190.84
2023-01-17T05:40:34.360Z,99192.56
2023-01-17T05:43:06.825Z,99188.28
2023-01-17T05:45:35.900Z,99190.91
2023-01-17T05:48:05.730Z,99184.88
2023-01-17T05:50:38.270Z,99179.75
2023-01-17T05:53:10.387Z,99178.06
2023-01-17T05:55:40.572Z,99175.50
2023-01-17T05:58:14.714Z,99177.19
2023-01-17T06:00:44.703Z,99166.09
2023-01-17T06:03:14.036Z,99169.50
2023-01-17T06:05:43.902Z,99166.94
2023-01-17T06:08:13.312Z,99166.94
2023-01-17T06:10:42.081Z,99165.22
2023-01-17T06:13:16.415Z,99161.75
2023-01-17T06:15:45.587Z,99160.03
2023-01-17T06:18:17.522Z,99161.72
2023-01-17T06:20:47.431Z,99153.09
2023-01-17T06:23:16.932Z,99156.56
2023-01-17T06:25:47.844Z,99159.03
2023-01-17T06:28:19.894Z,99146.09
2023-01-17T06:30:49.266Z,99146.94
2023-01-17T06:33:18.270Z,99140.94
2023-01-17T06:35:54.458Z,99144.31
2023-01-17T06:38:23.807Z,99133.19
2023-01-17T06:40:52.880Z,99134.03
2023-01-17T06:43:22.118Z,99128.03
2023-01-17T06:45:51.451Z,99120.19
2023-01-17T06:48:20.789Z,99111.56
2023-01-17T06:50:50.704Z,99108.06
2023-01-17T06:53:19.714Z,99099.44
2023-01-17T06:55:48.902Z,99097.69
2023-01-17T06:58:17.746Z,99083.88
2023-01-17T07:00:46.875Z,99078.66
2023-01-17T07:03:25.379Z,99069.03
2023-01-17T07:05:54.611Z,99060.41
2023-01-17T07:08:23.760Z,99057.91
2023-01-17T07:10:53.145Z,99056.19
2023-01-17T07:13:21.803Z,99049.31
2023-01-17T07:15:51.009Z,99040.44
2023-01-17T07:18:24.068Z,99042.22
2023-01-17T07:20:56.206Z,99037.84
2023-01-17T07:23:26.049Z,99029.13
2023-01-17T07:25:57.657Z,99022.25
2023-01-17T07:28:27.952Z,99018.81
2023-01-17T07:30:57.341Z,99021.38
2023-01-17T07:33:26.348Z,99018.75
2023-01-17T07:35:55.380Z,99010.00
2023-01-17T07:38:24.196Z,99008.28
2023-01-17T07:40:53.255Z,99010.13
2023-01-17T07:43:22.207Z,99009.22
2023-01-17T07:45:52.741Z,99002.25
2023-01-17T07:48:24.582Z,99006.38
2023-01-17T07:50:58.059Z,98999.38
2023-01-17T07:53:29.646Z,98992.41
2023-01-17T07:56:03.906Z,98997.44
2023-01-17T07:58:34.241Z,98989.84
2023-01-17T08:01:08.804Z,98989.72
2023-01-17T08:03:40.902Z,98986.28
2023-01-17T08:06:23.615Z,98975.69
2023-01-17T08:08:57.951Z,98975.91
2023-01-17T08:11:28.360Z,98967.25
2023-01-17T08:14:01.071Z,98973.28
2023-01-17T08:16:30.851Z,98972.34
2023-01-17T08:19:00.108Z,98965.56
2023-01-17T08:21:28.876Z,98953.44
2023-01-17T08:23:57.791Z,98946.50
2023-01-17T08:26:26.649Z,98954.16
2023-01-17T08:29:02.340Z,98953.13
2023-01-17T08:31:36.354Z,98951.38
2023-01-17T08:34:05.669Z,98948.78
2023-01-17T08:36:34.488Z,98944.59
2023-01-17T08:39:03.830Z,98949.66
2023-01-17T08:41:33.311Z,98948.00
2023-01-17T08:44:03.252Z,98949.72
2023-01-17T08:46:32.943Z,98947.13
2023-01-17T08:49:03.756Z,98945.19
2023-01-17T08:51:33.750Z,98937.44
2023-01-17T08:54:02.604Z,98942.00
2023-01-17T08:56:31.683Z,98938.25
2023-01-17T08:59:00.375Z,98922.63
2023-01-17T09:01:29.493Z,98918.81
2023-01-17T09:03:58.295Z,98922.97
2023-01-17T09:06:27.709Z,98916.69
2023-01-17T09:08:56.580Z,98916.72
2023-01-17T09:11:25.529Z,98917.56
2023-01-17T09:13:54.778Z,98907.41
2023-01-17T09:16:24.116Z,98901.97
2023-01-17T09:19:00.136Z,98900.22
2023-01-17T09:21:29.307Z,98904.72
2023-01-17T09:23:58.437Z,98902.81
2023-01-17T09:26:30.151Z,98905.31
2023-01-17T09:29:00.120Z,98907.91
2023-01-17T09:31:29.961Z,98900.16
2023-01-17T09:34:00.245Z,98902.84
2023-01-17T09:36:34.754Z,98901.06
2023-01-17T09:39:05.057Z,98893.41
2023-01-17T09:42:19.487Z,98894.75
2023-01-17T09:44:53.512Z,98888.94
2023-01-17T09:47:41.490Z,98891.66
2023-01-17T09:50:19.655Z,98890.84
2023-01-17T09:52:49.128Z,98886.47
2023-01-17T09:55:19.407Z,98889.81
2023-01-17T09:58:00.969Z,98879.56
2023-01-17T10:00:59.142Z,98879.44
2023-01-17T10:03:43.288Z,98877.88
2023-01-17T10:06:56.745Z,98875.03
2023-01-17T10:09:39.884Z,98884.56
2023-01-17T10:12:32.655Z,98877.50
2023-01-17T10:15:23.196Z,98881.91
2023-01-17T10:18:30.485Z,98868.97
2023-01-17T10:21:33.847Z,98878.41
2023-01-17T10:24:19.941Z,98879.97
2023-01-17T10:26:54.101Z,98874.28
2023-01-17T10:29:29.207Z,98864.97
2023-01-17T10:32:02.572Z,98864.78
2023-01-17T10:34:49.310Z,98870.13
2023-01-17T10:37:22.041Z,98866.06
2023-01-17T10:39:54.767Z,98869.44
2023-01-17T10:42:30.211Z,98872.78
2023-01-17T10:45:21.893Z,98862.34
2023-01-17T10:48:15.322Z,98859.72
2023-01-17T10:50:59.527Z,98859.78
2023-01-17T10:54:01.953Z,98859.06
2023-01-17T10:56:32.251Z,98862.91
2023-01-17T10:59:10.090Z,98864.34
2023-01-17T11:01:40.963Z,98857.59
2023-01-17T11:04:24.780Z,98862.53
2023-01-17T11:07:15.391Z,98868.59
2023-01-17T11:09:55.257Z,98860.06
2023-01-17T11:12:48.306Z,98853.28
2023-01-17T11:15:26.952Z,98861.91
2023-01-17T11:18:05.632Z,98854.41
2023-01-17T11:20:46.641Z,98862.16
2023-01-17T11:23:18.717Z,98854.56
2023-01-17T11:26:07.226Z,98863.09
2023-01-17T11:28:38.685Z,98857.25
2023-01-17T11:31:29.707Z,98857.34
2023-01-17T11:34:17.569Z,98856.44
2023-01-17T11:36:47.071Z,98858.41
2023-01-17T11:39:19.311Z,98866.25
2023-01-17T11:41:49.827Z,98868.78
2023-01-17T11:44:31.224Z,98873.09
2023-01-17T11:47:15.655Z,98866.25
2023-01-17T11:49:47.342Z,98876.72
2023-01-17T11:52:33.347Z,98892.13
2023-01-17T11:55:02.392Z,98897.59
2023-01-17T11:57:34.446Z,98903.53
2023-01-17T12:00:20.768Z,98908.03
2023-01-17T12:03:16.208Z,98893.16
2023-01-17T12:05:57.433Z,98882.09
2023-01-17T12:08:57.583Z,98878.84
2023-01-17T12:12:05.812Z,98883.31
2023-01-17T12:14:42.289Z,98890.25
2023-01-17T12:17:34.510Z,98906.75
2023-01-17T12:20:12.632Z,98894.84
2023-01-17T12:23:00.758Z,98893.25
2023-01-17T12:25:41.543Z,98909.63
2023-01-17T12:28:19.651Z,98920.78
2023-01-17T12:31:14.511Z,98919.13
2023-01-17T12:33:44.724Z,98914.13
2023-01-17T12:36:54.200Z,98901.88
2023-01-17T12:39:32.554Z,98910.50
2023-01-17T12:42:08.773Z,98917.41
2023-01-17T12:44:48.109Z,98922.63
2023-01-17T12:47:19.592Z,98919.28
2023-01-17T12:50:12.510Z,98925.25
2023-01-17T12:53:00.212Z,98930.47
2023-01-17T12:55:43.069Z,98932.31
2023-01-17T12:58:20.479Z,98928.88
2023-01-17T13:00:55.871Z,98940.13
2023-01-17T13:03:37.291Z,98941.84
2023-01-17T13:06:08.460Z,98950.47
2023-01-17T13:08:50.724Z,98956.38
2023-01-17T13:12:01.235Z,98959.00
2023-01-17T13:14:30.517Z,98967.69
2023-01-17T13:17:10.337Z,98965.91
2023-01-17T13:20:11.856Z,98965.97
2023-01-17T13:22:42.921Z,98960.88
2023-01-17T13:25:35.080Z,98955.72
2023-01-17T13:28:11.916Z,98965.22
2023-01-17T13:30:44.323Z,98969.56
2023-01-17T13:33:28.424Z,98973.84
2023-01-17T13:36:10.692Z,98978.16
2023-01-17T13:39:10.123Z,98975.56
2023-01-17T13:41:56.125Z,98981.59
2023-01-17T13:44:31.217Z,98975.56
2023-01-17T13:47:26.632Z,98979.00
2023-01-17T13:49:57.523Z,98985.00
2023-01-17T13:52:26.343Z,98988.44
2023-01-17T13:54:58.668Z,98982.44
2023-01-17T13:57:29.624Z,98990.94
2023-01-17T14:00:25.196Z,98976.34
2023-01-17T14:02:55.671Z,98978.94
2023-01-17T14:05:39.411Z,98977.25
2023-01-17T14:08:19.317Z,98984.94
2023-01-17T14:10:52.908Z,98987.47
2023-01-17T14:13:37.733Z,98993.47
2023-01-17T14:16:27.862Z,98998.63
2023-01-17T14:18:58.106Z,99003.66
2023-01-17T14:21:32.664Z,99001.09
2023-01-17T14:24:14.226Z,99019.94
2023-01-17T14:26:53.728Z,99025.00
2023-01-17T14:29:47.542Z,99022.50
2023-01-17T14:32:23.278Z,99037.84
2023-01-17T14:34:54.843Z,99030.13
2023-01-17T14:37:42.723Z,99035.25
2023-01-17T14:40:18.370Z,99032.66
2023-01-17T14:42:53.346Z,99041.19
2023-01-17T14:45:31.958Z,99050.63
2023-01-17T14:48:03.510Z,99056.50
2023-01-17T14:50:44.187Z,99071.09
2023-01-17T14:53:16.507Z,99059.81
2023-01-17T14:55:52.841Z,99056.47
2023-01-17T14:58:25.141Z,99062.41
2023-01-17T15:01:06.711Z,99069.22
2023-01-17T15:04:02.754Z,99061.53
2023-01-17T15:06:42.643Z,99064.84
2023-01-17T15:09:17.826Z,99074.28
2023-01-17T15:11:50.124Z,99070.84
2023-01-17T15:14:33.326Z,99073.41
2023-01-17T15:17:18.596Z,99087.88
2023-01-17T15:20:04.887Z,99091.22
2023-01-17T15:22:35.364Z,99094.56
2023-01-17T15:25:05.174Z,99098.78
2023-01-17T15:27:35.000Z,99092.81
2023-01-17T15:30:07.209Z,99095.31
2023-01-17T15:32:36.360Z,99102.97
2023-01-17T15:35:09.080Z,99101.25
2023-01-17T15:37:41.407Z,99107.28
2023-01-17T15:40:29.108Z,99109.06
2023-01-17T15:43:01.727Z,99115.78
2023-01-17T15:45:32.753Z,99128.59
2023-01-17T15:48:39.890Z,99138.19
2023-01-17T15:51:14.425Z,99141.47
2023-01-17T15:53:44.919Z,99153.34
2023-01-17T15:56:33.868Z,99156.00
2023-01-17T15:59:31.637Z,99166.22
2023-01-17T16:02:01.057Z,99175.34
2023-01-17T16:04:38.191Z,99172.88
2023-01-17T16:07:21.498Z,99177.19
2023-01-17T16:09:51.108Z,99184.78
2023-01-17T16:12:20.061Z,99180.44
2023-01-17T16:15:06.286Z,99176.94
2023-01-17T16:17:38.484Z,99176.03
2023-01-17T16:20:16.886Z,99183.88
2023-01-17T16:22:45.812Z,99181.16
2023-01-17T16:25:18.706Z,99176.09
2023-01-17T16:27:48.383Z,99187.09
2023-01-17T16:30:20.644Z,99185.41
2023-01-17T16:32:50.590Z,99188.78
2023-01-17T16:35:24.912Z,99183.75
2023-01-17T16:37:59.121Z,99180.16
2023-01-17T16:40:32.236Z,99178.31
2023-01-17T16:43:02.198Z,99184.22
2023-01-17T16:45:31.463Z,99185.78
2023-01-17T16:48:00.538Z,99190.94
2023-01-17T16:50:29.431Z,99184.94
2023-01-17T16:52:58.955Z,99191.88
2023-01-17T16:55:28.103Z,99191.78
2023-01-17T16:57:59.335Z,99187.53
2023-01-17T17:00:28.199Z,99188.28
2023-01-17T17:02:57.111Z,99183.13
2023-01-17T17:05:27.663Z,99189.06
2023-01-17T17:07:56.987Z,99184.78
2023-01-17T17:10:28.620Z,99191.63
2023-01-17T17:12:57.961Z,99196.81
2023-01-17T17:15:27.133Z,99183.00
2023-01-17T17:17:56.118Z,99184.66
2023-01-17T17:20:25.318Z,99185.47
2023-01-17T17:22:54.527Z,99175.19
2023-01-17T17:25:23.586Z,99174.28
2023-01-17T17:27:52.944Z,99177.59
2023-01-17T17:30:22.134Z,99175.00
2023-01-17T17:32:51.055Z,99179.22
2023-01-17T17:35:19.928Z,99186.94
2023-01-17T17:37:48.970Z,99184.41
2023-01-17T17:40:18.069Z,99182.63
2023-01-17T17:42:46.997Z,99189.41
2023-01-17T17:45:16.098Z,99190.22
2023-01-17T17:47:45.370Z,99196.22
2023-01-17T17:50:14.480Z,99189.41
2023-01-17T17:52:45.454Z,99191.09
2023-01-17T17:55:19.770Z,99191.94
2023-01-17T17:57:48.882Z,99187.66
2023-01-17T18:00:17.982Z,99188.50
2023-01-17T18:02:46.863Z,99185.88
2023-01-17T18:05:15.760Z,99172.22
2023-01-17T18:07:44.809Z,99175.66
2023-01-17T18:10:13.556Z,99168.88
2023-01-17T18:12:42.456Z,99174.09
2023-01-17T18:15:11.421Z,99172.28
2023-01-17T18:17:40.325Z,99168.78
2023-01-17T18:20:09.751Z,99172.19
2023-01-17T18:22:38.686Z,99174.63
2023-01-17T18:25:08.429Z,99175.50
2023-01-17T18:27:37.331Z,99173.66
2023-01-17T18:30:07.965Z,99174.72
2023-01-17T18:32:36.767Z,99175.59
2023-01-17T18:35:05.959Z,99176.28
2023-01-17T18:37:35.163Z,99175.28
2023-01-17T18:40:03.847Z,99168.56
2023-01-17T18:42:33.081Z,99167.81
2023-01-17T18:45:02.075Z,99163.63
2023-01-17T18:47:31.152Z,99162.66
2023-01-17T18:50:00.541Z,99163.50
2023-01-17T18:52:29.234Z,99165.94
2023-01-17T18:54:58.294Z,99169.25
2023-01-17T18:57:27.141Z,99161.56
2023-01-17T18:59:56.199Z,99164.91
2023-01-17T19:02:25.286Z,99153.66
2023-01-17T19:04:54.011Z,99151.81
2023-01-17T19:07:22.941Z,99156.00
2023-01-17T19:09:51.796Z,99154.28
2023-01-17T19:12:20.840Z,99154.28
2023-01-17T19:14:49.576Z,99154.19
2023-01-17T19:17:19.615Z,99159.19
2023-01-17T19:19:49.792Z,99157.50
2023-01-17T19:22:18.769Z,99167.56
2023-01-17T19:24:47.592Z,99167.53
2023-01-17T19:27:16.963Z,99171.56
2023-01-17T19:29:45.921Z,99167.09
2023-01-17T19:32:14.876Z,99162.81
2023-01-17T19:34:43.519Z,99158.44
2023-01-17T19:37:12.391Z,99156.78
2023-01-17T19:39:41.894Z,99154.25
2023-01-17T19:42:16.475Z,99157.75
2023-01-17T19:44:45.412Z,99157.75
2023-01-17T19:47:14.216Z,99165.34
2023-01-17T19:49:45.433Z,99171.38
2023-01-17T19:52:14.350Z,99170.41
2023-01-17T19:54:43.018Z,99173.81
2023-01-17T19:57:12.071Z,99168.72
2023-01-17T19:59:40.933Z,99178.75
2023-01-17T20:02:12.611Z,99167.75
2023-01-17T20:04:41.653Z,99177.91
2023-01-17T20:07:10.706Z,99176.34
2023-01-17T20:09:39.736Z,99174.59
2023-01-17T20:12:08.764Z,99172.09
2023-01-17T20:14:37.871Z,99167.78
2023-01-17T20:17:06.950Z,99171.16
2023-01-17T20:19:36.000Z,99183.81
2023-01-17T20:22:06.269Z,99179.53
2023-01-17T20:24:35.323Z,99182.00
2023-01-17T20:27:04.464Z,99176.72
2023-01-17T20:29:33.279Z,99166.50
2023-01-17T20:32:02.161Z,99170.59
2023-01-17T20:34:32.553Z,99168.91
2023-01-17T20:37:01.487Z,99177.31
2023-01-17T20:39:30.655Z,99171.44
2023-01-17T20:41:59.483Z,99165.53
2023-01-17T20:44:28.480Z,99163.97
2023-01-17T20:46:57.514Z,99157.94
2023-01-17T20:49:26.694Z,99149.41
2023-01-17T20:51:56.338Z,99145.97
2023-01-17T20:54:25.877Z,99149.19
2023-01-17T20:56:56.189Z,99152.63
2023-01-17T20:59:25.143Z,99147.53
2023-01-17T21:01:54.285Z,99145.81
2023-01-17T21:04:26.659Z,99144.06
2023-01-17T21:06:56.343Z,99150.81
2023-01-17T21:09:25.584Z,99161.28
2023-01-17T21:12:02.119Z,99161.84
2023-01-17T21:14:31.468Z,99158.28
2023-01-17T21:17:00.789Z,99157.13
2023-01-17T21:19:29.786Z,99159.72
2023-01-17T21:21:58.683Z,99154.69
2023-01-17T21:24:30.366Z,99159.78
2023-01-17T21:26:59.460Z,99148.84
2023-01-17T21:29:30.250Z,99141.34
2023-01-17T21:31:59.758Z,99141.34
2023-01-17T21:34:30.314Z,99132.75
2023-01-17T21:36:59.802Z,99125.03
2023-01-17T21:39:30.236Z,99117.38
2023-01-17T21:41:59.358Z,99112.97
2023-01-17T21:44:28.139Z,99111.13
2023-01-17T21:46:57.222Z,99114.59
2023-01-17T21:49:26.159Z,99113.66
2023-01-17T21:51:55.452Z,99105.88
2023-01-17T21:54:47.721Z,99113.72
2023-01-17T21:57:38.267Z,99115.34
2023-01-17T22:00:10.541Z,99117.78
2023-01-17T22:02:47.983Z,99119.56
2023-01-17T22:05:18.251Z,99122.13
2023-01-17T22:08:05.721Z,99119.69
2023-01-17T22:10:45.481Z,99122.31
2023-01-17T22:13:16.279Z,99119.81
2023-01-17T22:15:46.247Z,99110.59
2023-01-17T22:18:16.120Z,99118.06
2023-01-17T22:20:44.830Z,99114.41
2023-01-17T22:23:13.878Z,99111.84
2023-01-17T22:25:42.819Z,99108.50
2023-01-17T22:28:12.202Z,99123.94
2023-01-17T22:30:40.992Z,99122.69
2023-01-17T22:33:09.803Z,99112.84
2023-01-17T22:35:38.803Z,99113.63
2023-01-17T22:38:07.637Z,99114.53
2023-01-17T22:40:39.297Z,99120.75
2023-01-17T22:43:08.147Z,99112.25
2023-01-17T22:45:37.145Z,99111.28
2023-01-17T22:48:06.360Z,99103.63
2023-01-17T22:50:35.625Z,99101.91
2023-01-17T22:53:04.383Z,99100.16
2023-01-17T22:55:33.519Z,99099.28
2023-01-17T22:58:02.298Z,99089.06
2023-01-17T23:00:32.446Z,99108.75
2023-01-17T23:03:01.686Z,99102.53
2023-01-17T23:05:30.613Z,99102.38
2023-01-17T23:08:02.252Z,99095.53
2023-01-17T23:10:49.546Z,99098.03
2023-01-17T23:13:21.509Z,99108.09
2023-01-17T23:16:08.727Z,99105.22
2023-01-17T23:18:55.862Z,99099.38
2023-01-17T23:21:44.660Z,99096.94
2023-01-17T23:24:13.476Z,99090.50
2023-01-17T23:27:02.199Z,99095.41
2023-01-17T23:29:31.065Z,99101.38
2023-01-17T23:31:59.850Z,99100.50
2023-01-17T23:34:28.841Z,99103.00
2023-01-17T23:36:57.678Z,99103.00
2023-01-17T23:39:28.478Z,99099.50
2023-01-17T23:42:16.121Z,99112.00
2023-01-17T23:44:45.059Z,99114.41
2023-01-17T23:47:13.757Z,99120.16
2023-01-17T23:49:44.459Z,99113.38
2023-01-17T23:52:13.168Z,99113.47
2023-01-17T23:54:42.024Z,99119.50
2023-01-17T23:57:10.955Z,99126.47
2023-01-17T23:59:39.750Z,99125.59
